createdAt,value
2018-05-03T00:02:24.388Z,4.53
2018-05-03T00:04:51.879Z,5.43
2018-05-03T00:07:19.447Z,6.07
2018-05-03T00:09:46.908Z,4.80
2018-05-03T00:12:14.361Z,5.30
2018-05-03T00:14:41.922Z,6.73
2018-05-03T00:17:09.383Z,6.00
2018-05-03T00:19:36.845Z,4.37
2018-05-03T00:22:05.076Z,4.87
2018-05-03T00:24:32.552Z,4.80
2018-05-03T00:27:00.010Z,5.60
2018-05-03T00:29:27.500Z,5.17
2018-05-03T00:31:55.749Z,5.13
2018-05-03T00:34:23.231Z,5.47
2018-05-03T00:36:51.484Z,5.30
2018-05-03T00:39:19.041Z,6.27
2018-05-03T00:41:46.636Z,4.80
2018-05-03T00:44:14.870Z,5.67
2018-05-03T00:46:43.160Z,5.67
2018-05-03T00:49:10.719Z,5.17
2018-05-03T00:51:38.193Z,5.17
2018-05-03T00:56:59.892Z,6.07
2018-05-03T00:59:27.358Z,6.13
2018-05-03T01:01:54.818Z,6.10
2018-05-03T01:04:22.271Z,6.73
2018-05-03T01:06:49.739Z,5.70
2018-05-03T01:09:17.295Z,7.13
2018-05-03T01:11:44.771Z,5.90
2018-05-03T01:14:12.999Z,6.03
2018-05-03T01:16:40.499Z,6.00
2018-05-03T01:19:07.991Z,6.53
2018-05-03T01:21:35.558Z,6.27
2018-05-03T01:24:03.064Z,5.73
2018-05-03T01:26:30.578Z,6.63
2018-05-03T01:28:58.056Z,5.83
2018-05-03T01:31:25.523Z,5.90
2018-05-03T01:33:53.045Z,6.10
2018-05-03T01:36:26.544Z,5.97
2018-05-03T01:38:54.049Z,6.70
2018-05-03T01:41:21.604Z,5.67
2018-05-03T01:43:49.164Z,6.07
2018-05-03T01:46:16.728Z,6.97
2018-05-03T01:48:44.188Z,5.93
2018-05-03T01:51:11.677Z,6.20
2018-05-03T01:53:40.002Z,6.00
2018-05-03T01:56:07.478Z,5.87
2018-05-03T01:58:34.939Z,6.97
2018-05-03T02:01:03.172Z,5.60
2018-05-03T02:03:30.630Z,7.07
2018-05-03T02:05:58.122Z,6.13
2018-05-03T02:08:25.663Z,6.17
2018-05-03T02:10:53.131Z,5.70
2018-05-03T02:13:20.749Z,6.33
2018-05-03T02:15:48.235Z,6.73
2018-05-03T02:18:15.703Z,6.73
2018-05-03T02:20:43.178Z,6.60
2018-05-03T02:23:11.431Z,6.43
2018-05-03T02:25:38.908Z,6.63
2018-05-03T02:28:07.173Z,6.50
2018-05-03T02:30:34.745Z,6.30
2018-05-03T02:33:02.962Z,6.47
2018-05-03T02:35:30.426Z,5.80
2018-05-03T02:37:57.923Z,6.73
2018-05-03T02:40:25.395Z,7.10
2018-05-03T02:42:53.639Z,6.10
2018-05-03T02:45:21.102Z,6.30
2018-05-03T02:47:48.661Z,7.20
2018-05-03T02:50:16.139Z,7.00
2018-05-03T02:52:44.395Z,6.70
2018-05-03T02:55:11.908Z,7.07
2018-05-03T02:57:56.968Z,6.63
2018-05-03T03:00:42.280Z,6.60
2018-05-03T03:03:27.439Z,5.80
2018-05-03T03:06:07.913Z,6.23
2018-05-03T03:12:03.555Z,6.93
2018-05-03T03:14:48.739Z,5.90
2018-05-03T03:17:33.874Z,6.87
2018-05-03T03:20:19.062Z,6.70
2018-05-03T03:23:04.434Z,6.23
2018-05-03T03:29:00.895Z,7.13
2018-05-03T03:31:58.120Z,7.07
2018-05-03T03:34:28.498Z,7.33
2018-05-03T03:37:13.660Z,6.43
2018-05-03T03:39:52.983Z,7.17
2018-05-03T03:45:25.074Z,7.03
2018-05-03T03:47:52.584Z,7.97
2018-05-03T03:50:20.108Z,6.80
2018-05-03T03:52:47.583Z,6.63
2018-05-03T03:55:15.816Z,7.50
2018-05-03T03:57:43.293Z,6.77
2018-05-03T04:00:10.847Z,6.60
2018-05-03T04:02:38.416Z,6.23
2018-05-03T04:05:06.669Z,6.97
2018-05-03T04:07:34.123Z,6.70
2018-05-03T04:10:01.614Z,7.23
2018-05-03T04:12:29.834Z,7.10
2018-05-03T04:14:57.304Z,6.97
2018-05-03T04:17:36.692Z,7.50
2018-05-03T04:20:16.919Z,7.80
2018-05-03T04:23:01.979Z,7.33
2018-05-03T04:25:41.277Z,8.20
2018-05-03T04:28:08.749Z,7.40
2018-05-03T04:30:36.235Z,7.77
2018-05-03T04:33:03.827Z,7.57
2018-05-03T04:35:31.907Z,8.17
2018-05-03T04:37:59.381Z,7.53
2018-05-03T04:40:26.838Z,7.73
2018-05-03T04:42:54.322Z,8.60
2018-05-03T04:45:21.794Z,9.05
2018-05-03T04:47:49.264Z,8.87
2018-05-03T04:50:17.507Z,8.70
2018-05-03T04:52:44.992Z,7.78
2018-05-03T04:55:12.468Z,9.30
2018-05-03T04:57:40.698Z,9.47
2018-05-03T05:00:08.211Z,9.00
2018-05-03T05:02:35.688Z,8.23
2018-05-03T05:05:03.196Z,9.37
2018-05-03T05:07:30.747Z,8.20
2018-05-03T05:09:58.206Z,8.07
2018-05-03T05:12:25.686Z,7.90
2018-05-03T05:14:53.920Z,10.13
2018-05-03T05:17:21.392Z,7.70
2018-05-03T05:19:48.875Z,8.07
2018-05-03T05:22:17.108Z,8.40
2018-05-03T05:24:44.581Z,8.10
2018-05-03T05:27:12.063Z,8.87
2018-05-03T05:29:40.315Z,8.13
2018-05-03T05:32:07.788Z,7.77
2018-05-03T05:34:36.016Z,7.83
2018-05-03T05:37:03.491Z,7.30
2018-05-03T05:39:31.054Z,7.60
2018-05-03T05:41:58.826Z,7.83
2018-05-03T05:44:26.442Z,8.07
2018-05-03T05:46:53.894Z,7.77
2018-05-03T05:49:21.367Z,8.43
2018-05-03T05:51:48.849Z,13.93
2018-05-03T05:54:16.328Z,8.33
2018-05-03T05:56:44.602Z,8.20
2018-05-03T05:59:12.022Z,7.73
2018-05-03T06:01:39.504Z,8.17
2018-05-03T06:04:06.979Z,7.50
2018-05-03T06:06:35.216Z,7.50
2018-05-03T06:09:02.699Z,7.67
2018-05-03T06:11:31.021Z,7.03
2018-05-03T06:13:58.504Z,7.53
2018-05-03T06:16:26.000Z,7.27
2018-05-03T06:18:53.477Z,7.23
2018-05-03T06:21:21.007Z,7.70
2018-05-03T06:23:48.552Z,7.10
2018-05-03T06:26:16.023Z,6.90
2018-05-03T06:28:44.254Z,7.17
2018-05-03T06:31:11.752Z,7.33
2018-05-03T06:33:39.790Z,6.70
2018-05-03T06:36:08.059Z,6.87
2018-05-03T06:38:35.531Z,6.80
2018-05-03T06:41:03.100Z,6.73
2018-05-03T06:43:30.574Z,8.00
2018-05-03T06:45:58.847Z,7.03
2018-05-03T06:48:27.095Z,6.40
2018-05-03T06:50:54.555Z,6.33
2018-05-03T06:53:22.153Z,6.47
2018-05-03T06:55:49.553Z,6.40
2018-05-03T06:58:17.015Z,6.10
2018-05-03T07:00:44.471Z,6.53
2018-05-03T07:03:11.939Z,6.13
2018-05-03T07:05:39.403Z,6.87
2018-05-03T07:08:08.457Z,5.80
2018-05-03T07:10:35.935Z,5.47
2018-05-03T07:13:03.407Z,6.07
2018-05-03T07:15:32.491Z,6.53
2018-05-03T07:17:59.944Z,5.60
2018-05-03T07:20:27.413Z,6.73
2018-05-03T07:22:54.973Z,5.83
2018-05-03T07:25:22.535Z,5.97
2018-05-03T07:27:50.099Z,6.37
2018-05-03T07:30:17.613Z,7.00
2018-05-03T07:32:45.078Z,6.20
2018-05-03T07:35:12.546Z,7.33
2018-05-03T07:37:40.006Z,6.73
2018-05-03T07:40:07.487Z,6.70
2018-05-03T07:42:35.920Z,5.90
2018-05-03T07:45:03.395Z,6.70
2018-05-03T07:47:30.875Z,6.80
2018-05-03T07:49:58.426Z,7.07
2018-05-03T07:52:25.896Z,6.53
2018-05-03T07:54:53.476Z,5.93
2018-05-03T07:57:21.708Z,7.23
2018-05-03T07:59:49.180Z,7.27
2018-05-03T08:02:16.642Z,7.27
2018-05-03T08:04:44.115Z,6.83
2018-05-03T08:07:12.366Z,6.33
2018-05-03T08:09:39.845Z,6.80
2018-05-03T08:12:07.391Z,6.30
2018-05-03T08:14:34.952Z,7.57
2018-05-03T08:17:02.610Z,7.40
2018-05-03T08:19:30.769Z,7.20
2018-05-03T08:21:58.218Z,6.87
2018-05-03T08:24:25.719Z,6.60
2018-05-03T08:26:53.185Z,6.00
2018-05-03T08:29:20.702Z,6.40
2018-05-03T08:31:48.291Z,7.00
2018-05-03T08:34:15.729Z,5.80
2018-05-03T08:36:43.215Z,6.60
2018-05-03T08:39:11.479Z,7.47
2018-05-03T08:41:39.712Z,6.40
2018-05-03T08:44:07.199Z,7.60
2018-05-03T08:46:34.760Z,6.83
2018-05-03T08:49:02.298Z,6.33
2018-05-03T08:51:29.815Z,6.17
2018-05-03T08:53:57.381Z,6.20
2018-05-03T08:56:24.879Z,6.70
2018-05-03T08:58:52.352Z,6.90
2018-05-03T09:01:19.995Z,7.27
2018-05-03T09:03:48.154Z,6.67
2018-05-03T09:06:15.627Z,6.17
2018-05-03T09:08:43.094Z,5.80
2018-05-03T09:11:11.365Z,6.10
2018-05-03T09:13:38.824Z,6.40
2018-05-03T09:16:07.790Z,6.57
2018-05-03T09:18:35.267Z,7.20
2018-05-03T09:21:02.735Z,8.07
2018-05-03T09:23:30.215Z,7.20
2018-05-03T09:25:58.442Z,6.10
2018-05-03T09:28:25.920Z,6.60
2018-05-03T09:30:53.471Z,7.10
2018-05-03T09:33:21.713Z,7.27
2018-05-03T09:35:49.191Z,7.43
2018-05-03T09:38:16.646Z,7.20
2018-05-03T09:40:44.129Z,6.93
2018-05-03T09:43:11.671Z,8.00
2018-05-03T09:45:39.134Z,8.20
2018-05-03T09:48:07.413Z,7.77
2018-05-03T09:50:34.866Z,8.10
2018-05-03T09:53:03.094Z,8.80
2018-05-03T09:55:30.580Z,7.80
2018-05-03T09:57:58.040Z,7.63
2018-05-03T10:00:25.543Z,7.70
2018-05-03T10:02:53.771Z,8.57
2018-05-03T10:05:21.225Z,8.00
2018-05-03T10:07:48.700Z,7.93
2018-05-03T10:10:16.156Z,6.33
2018-05-03T10:12:43.642Z,5.87
2018-05-03T10:15:11.880Z,5.40
2018-05-03T10:17:39.544Z,5.60
2018-05-03T10:20:08.520Z,5.33
2018-05-03T10:22:36.062Z,4.50
2018-05-03T10:25:03.562Z,5.17
2018-05-03T10:27:31.023Z,5.20
2018-05-03T10:29:58.499Z,6.23
2018-05-03T10:32:26.741Z,5.30
2018-05-03T10:34:54.266Z,4.30
2018-05-03T10:37:21.733Z,5.17
2018-05-03T10:39:49.204Z,5.93
2018-05-03T10:42:16.745Z,5.60
2018-05-03T10:44:45.006Z,5.50
2018-05-03T10:47:12.496Z,5.70
2018-05-03T10:49:39.946Z,5.70
2018-05-03T10:52:07.419Z,5.47
2018-05-03T10:54:34.888Z,5.47
2018-05-03T10:57:02.390Z,5.87
2018-05-03T10:59:29.851Z,6.00
2018-05-03T11:01:57.405Z,5.90
2018-05-03T11:04:24.830Z,6.50
2018-05-03T11:06:53.071Z,7.03
2018-05-03T11:09:20.635Z,6.70
2018-05-03T11:11:49.631Z,7.10
2018-05-03T11:14:17.106Z,6.83
2018-05-03T11:16:44.594Z,6.67
2018-05-03T11:19:12.080Z,7.47
2018-05-03T11:21:39.538Z,6.90
2018-05-03T11:24:07.018Z,7.67
2018-05-03T11:26:34.475Z,7.77
2018-05-03T11:29:01.951Z,6.43
2018-05-03T11:31:30.285Z,6.77
2018-05-03T11:33:57.663Z,7.23
2018-05-03T11:36:25.136Z,7.80
2018-05-03T11:38:53.393Z,8.20
2018-05-03T11:41:20.865Z,7.03
2018-05-03T11:43:49.183Z,6.60
2018-05-03T11:46:16.641Z,6.20
2018-05-03T11:48:44.177Z,6.53
2018-05-03T11:51:11.705Z,6.60
2018-05-03T11:53:39.173Z,6.00
2018-05-03T11:56:06.638Z,7.20
2018-05-03T11:58:34.889Z,6.50
2018-05-03T12:01:02.447Z,8.27
2018-05-03T12:03:30.040Z,6.07
2018-05-03T12:05:58.291Z,6.20
2018-05-03T12:08:25.838Z,6.90
2018-05-03T12:10:53.303Z,7.53
2018-05-03T12:13:20.864Z,8.37
2018-05-03T12:15:48.410Z,6.60
2018-05-03T12:18:15.872Z,6.23
2018-05-03T12:20:43.426Z,6.30
2018-05-03T12:23:10.985Z,4.90
2018-05-03T12:25:38.444Z,6.03
2018-05-03T12:28:05.999Z,4.93
2018-05-03T12:30:33.459Z,4.40
2018-05-03T12:33:00.916Z,5.30
2018-05-03T12:35:28.481Z,5.77
2018-05-03T12:37:56.140Z,5.40
2018-05-03T12:40:23.702Z,4.87
2018-05-03T12:42:51.957Z,6.10
2018-05-03T12:45:19.429Z,5.97
2018-05-03T12:47:46.896Z,5.10
2018-05-03T12:50:14.449Z,5.43
2018-05-03T12:52:41.916Z,4.50
2018-05-03T12:55:10.199Z,5.60
2018-05-03T12:57:38.427Z,6.10
2018-05-03T13:00:05.895Z,5.10
2018-05-03T13:02:33.365Z,4.77
2018-05-03T13:05:00.837Z,5.80
2018-05-03T13:07:29.064Z,5.37
2018-05-03T13:09:56.554Z,4.57
2018-05-03T13:12:24.011Z,4.93
2018-05-03T13:14:51.479Z,5.00
2018-05-03T13:17:18.940Z,4.13
2018-05-03T13:19:47.179Z,4.57
2018-05-03T13:22:14.646Z,3.80
2018-05-03T13:24:42.116Z,3.43
2018-05-03T13:27:09.671Z,3.20
2018-05-03T13:29:37.232Z,2.90
2018-05-03T13:32:04.703Z,3.20
2018-05-03T13:34:32.965Z,3.53
2018-05-03T13:37:00.402Z,3.57
2018-05-03T13:39:27.860Z,3.80
2018-05-03T13:41:55.423Z,2.97
2018-05-03T13:44:22.893Z,4.13
2018-05-03T13:46:50.357Z,3.17
2018-05-03T13:49:17.916Z,4.20
2018-05-03T13:51:45.396Z,3.57
2018-05-03T13:54:13.629Z,3.13
2018-05-03T13:56:41.200Z,3.50
2018-05-03T13:59:10.171Z,4.10
2018-05-03T14:01:37.804Z,3.50
2018-05-03T14:04:05.285Z,3.00
2018-05-03T14:06:32.767Z,3.40
2018-05-03T14:09:00.989Z,3.40
2018-05-03T14:11:28.461Z,4.23
2018-05-03T14:13:55.952Z,3.00
2018-05-03T14:16:23.506Z,3.70
2018-05-03T14:18:50.962Z,3.67
2018-05-03T14:21:19.200Z,3.87
2018-05-03T14:23:46.832Z,2.80
2018-05-03T14:26:15.054Z,3.90
2018-05-03T14:28:42.516Z,2.33
2018-05-03T14:31:10.003Z,2.40
2018-05-03T14:33:37.461Z,3.03
2018-05-03T14:36:05.792Z,2.50
2018-05-03T14:38:33.259Z,2.50
2018-05-03T14:41:00.720Z,3.93
2018-05-03T14:43:28.408Z,2.87
2018-05-03T14:45:57.372Z,3.20
2018-05-03T14:48:24.854Z,3.10
2018-05-03T14:50:52.314Z,2.80
2018-05-03T14:53:19.876Z,2.80
2018-05-03T14:55:47.345Z,2.93
2018-05-03T14:58:15.709Z,2.50
2018-05-03T15:00:43.215Z,2.70
2018-05-03T15:03:10.679Z,3.17
2018-05-03T15:05:38.149Z,3.10
2018-05-03T15:08:05.623Z,2.90
2018-05-03T15:10:33.140Z,3.40
2018-05-03T15:13:00.557Z,2.90
2018-05-03T15:15:28.013Z,3.00
2018-05-03T15:17:56.259Z,2.67
2018-05-03T15:20:23.744Z,2.40
2018-05-03T15:22:51.204Z,2.70
2018-05-03T15:25:19.485Z,2.70
2018-05-03T15:27:47.739Z,2.83
2018-05-03T15:30:15.194Z,2.93
2018-05-03T15:32:42.660Z,2.53
2018-05-03T15:35:10.120Z,4.37
2018-05-03T15:37:37.621Z,3.70
2018-05-03T15:40:05.118Z,4.00
2018-05-03T15:42:32.592Z,4.30
2018-05-03T15:45:00.819Z,4.50
2018-05-03T15:47:28.307Z,3.50
2018-05-03T15:49:55.811Z,3.03
2018-05-03T15:52:24.018Z,3.00
2018-05-03T15:54:51.602Z,3.00
2018-05-03T15:57:19.058Z,3.67
2018-05-03T15:59:46.531Z,2.73
2018-05-03T16:02:14.791Z,3.20
2018-05-03T16:04:42.262Z,3.60
2018-05-03T16:07:10.521Z,2.97
2018-05-03T16:09:38.074Z,2.93
2018-05-03T16:12:05.596Z,2.30
2018-05-03T16:14:33.095Z,3.27
2018-05-03T16:17:00.652Z,2.30
2018-05-03T16:19:28.135Z,2.37
2018-05-03T16:21:56.364Z,2.17
2018-05-03T16:24:23.827Z,2.30
2018-05-03T16:26:51.295Z,1.60
2018-05-03T16:29:18.756Z,1.90
2018-05-03T16:31:46.225Z,1.70
2018-05-03T16:34:13.707Z,1.80
2018-05-03T16:36:41.173Z,2.00
2018-05-03T16:39:08.652Z,1.63
2018-05-03T16:41:36.159Z,1.63
2018-05-03T16:44:04.416Z,1.93
2018-05-03T16:46:32.077Z,1.70
2018-05-03T16:48:59.565Z,1.80
2018-05-03T16:51:27.790Z,1.57
2018-05-03T16:53:55.254Z,1.80
2018-05-03T16:56:22.828Z,1.07
2018-05-03T16:58:50.303Z,1.50
2018-05-03T17:01:18.978Z,1.43
2018-05-03T17:03:46.455Z,1.40
2018-05-03T17:06:14.697Z,2.33
2018-05-03T17:08:42.151Z,1.47
2018-05-03T17:11:11.162Z,1.40
2018-05-03T17:13:38.655Z,1.50
2018-05-03T17:16:06.132Z,1.10
2018-05-03T17:18:33.611Z,1.63
2018-05-03T17:21:01.186Z,1.50
2018-05-03T17:23:29.510Z,1.53
2018-05-03T17:25:56.967Z,1.57
2018-05-03T17:28:24.466Z,1.23
2018-05-03T17:30:51.938Z,1.47
2018-05-03T17:33:20.170Z,1.50
2018-05-03T17:35:47.658Z,1.60
2018-05-03T17:38:15.111Z,1.40
2018-05-03T17:40:43.340Z,1.57
2018-05-03T17:43:10.904Z,1.73
2018-05-03T17:45:38.379Z,1.20
2018-05-03T17:48:05.860Z,1.27
2018-05-03T17:50:33.345Z,1.30
2018-05-03T17:53:01.581Z,1.10
2018-05-03T17:55:29.072Z,1.20
2018-05-03T17:57:57.331Z,2.00
2018-05-03T18:00:25.550Z,1.87
2018-05-03T18:02:53.015Z,1.33
2018-05-03T18:05:20.482Z,1.40
2018-05-03T18:07:47.990Z,1.30
2018-05-03T18:10:15.446Z,1.17
2018-05-03T18:12:43.679Z,1.60
2018-05-03T18:15:11.134Z,1.30
2018-05-03T18:17:38.615Z,1.60
2018-05-03T18:20:06.087Z,1.33
2018-05-03T18:22:34.352Z,1.20
2018-05-03T18:25:03.350Z,1.37
2018-05-03T18:27:30.898Z,1.53
2018-05-03T18:29:58.361Z,1.20
2018-05-03T18:32:25.832Z,1.57
2018-05-03T18:34:54.077Z,1.80
2018-05-03T18:37:21.560Z,1.40
2018-05-03T18:39:49.036Z,1.20
2018-05-03T18:42:16.516Z,1.33
2018-05-03T18:44:43.983Z,1.40
2018-05-03T18:47:11.453Z,1.20
2018-05-03T18:49:38.965Z,1.30
2018-05-03T18:52:07.221Z,1.10
2018-05-03T18:54:35.455Z,1.30
2018-05-03T18:57:02.949Z,1.30
2018-05-03T18:59:31.178Z,1.70
2018-05-03T19:01:58.660Z,1.27
2018-05-03T19:04:26.150Z,1.07
2018-05-03T19:06:53.700Z,1.50
2018-05-03T19:09:21.947Z,1.20
2018-05-03T19:11:49.514Z,1.30
2018-05-03T19:14:17.670Z,1.40
2018-05-03T19:16:45.140Z,1.77
2018-05-03T19:19:12.619Z,1.40
2018-05-03T19:21:40.856Z,1.17
2018-05-03T19:24:08.344Z,1.40
2018-05-03T19:26:36.625Z,1.43
2018-05-03T19:29:04.886Z,1.10
2018-05-03T19:31:32.346Z,1.23
2018-05-03T19:33:59.857Z,1.27
2018-05-03T19:36:27.319Z,1.00
2018-05-03T19:38:54.837Z,1.60
2018-05-03T19:41:22.265Z,1.43
2018-05-03T19:43:49.742Z,1.87
2018-05-03T19:46:18.208Z,1.33
2018-05-03T19:48:45.749Z,1.77
2018-05-03T19:51:13.978Z,1.67
2018-05-03T19:53:41.548Z,1.73
2018-05-03T19:56:09.043Z,1.43
2018-05-03T19:58:36.675Z,1.57
2018-05-03T20:01:04.184Z,1.70
2018-05-03T20:03:31.730Z,1.73
2018-05-03T20:05:59.201Z,1.07
2018-05-03T20:08:26.794Z,1.50
2018-05-03T20:10:54.211Z,5.20
2018-05-03T20:13:21.806Z,3.27
2018-05-03T20:15:49.330Z,1.60
2018-05-03T20:18:16.804Z,2.30
2018-05-03T20:20:45.114Z,6.20
2018-05-03T20:23:12.565Z,5.90
2018-05-03T20:25:40.027Z,2.23
2018-05-03T20:28:07.487Z,2.00
2018-05-03T20:30:34.967Z,1.70
2018-05-03T20:33:02.449Z,1.60
2018-05-03T20:35:29.918Z,1.60
2018-05-03T20:37:58.157Z,1.70
2018-05-03T20:40:25.633Z,1.90
2018-05-03T20:42:53.103Z,1.80
2018-05-03T20:45:20.581Z,1.57
2018-05-03T20:47:48.055Z,1.60
2018-05-03T20:50:15.545Z,1.60
2018-05-03T20:52:43.013Z,1.40
2018-05-03T20:55:10.540Z,1.97
2018-05-03T20:57:38.170Z,1.40
2018-05-03T21:00:05.756Z,1.63
2018-05-03T21:02:33.247Z,1.27
2018-05-03T21:05:00.838Z,1.83
2018-05-03T21:07:29.090Z,1.97
2018-05-03T21:09:56.700Z,1.83
2018-05-03T21:12:24.151Z,1.50
2018-05-03T21:14:51.757Z,1.90
2018-05-03T21:17:19.249Z,1.50
2018-05-03T21:19:47.600Z,1.53
2018-05-03T21:22:15.173Z,1.63
2018-05-03T21:24:43.556Z,1.60
2018-05-03T21:27:11.932Z,2.10
2018-05-03T21:29:39.571Z,1.60
2018-05-03T21:32:07.155Z,1.70
2018-05-03T21:34:35.516Z,1.57
2018-05-03T21:37:03.916Z,1.77
2018-05-03T21:39:32.240Z,1.80
2018-05-03T21:41:59.853Z,1.97
2018-05-03T21:44:28.266Z,2.00
2018-05-03T21:46:55.844Z,1.87
2018-05-03T21:49:23.385Z,1.57
2018-05-03T21:51:50.939Z,1.63
2018-05-03T21:54:18.447Z,1.30
2018-05-03T21:56:46.819Z,1.63
2018-05-03T21:59:14.425Z,2.07
2018-05-03T22:01:42.110Z,1.77
2018-05-03T22:04:09.695Z,1.20
2018-05-03T22:06:37.416Z,1.40
2018-05-03T22:09:05.001Z,1.37
2018-05-03T22:11:32.617Z,1.80
2018-05-03T22:14:00.252Z,1.33
2018-05-03T22:16:27.818Z,1.40
2018-05-03T22:18:56.060Z,1.20
2018-05-03T22:21:23.561Z,1.40
2018-05-03T22:23:51.782Z,1.57
2018-05-03T22:26:19.256Z,2.07
2018-05-03T22:28:46.727Z,1.80
2018-05-03T22:31:14.280Z,1.70
2018-05-03T22:33:41.836Z,1.80
2018-05-03T22:36:09.459Z,1.43
2018-05-03T22:38:36.953Z,1.77
2018-05-03T22:41:04.424Z,1.70
2018-05-03T22:43:31.974Z,1.80
2018-05-03T22:45:59.588Z,1.60
2018-05-03T22:48:27.059Z,2.53
2018-05-03T22:50:54.538Z,1.50
2018-05-03T22:53:22.109Z,2.00
2018-05-03T22:55:49.673Z,1.90
2018-05-03T22:58:17.237Z,1.40
2018-05-03T23:00:45.457Z,1.30
2018-05-03T23:03:13.520Z,1.63
2018-05-03T23:05:41.852Z,1.73
2018-05-03T23:08:09.401Z,1.67
2018-05-03T23:10:36.859Z,1.60
2018-05-03T23:13:04.416Z,2.17
2018-05-03T23:15:31.994Z,2.47
2018-05-03T23:18:00.230Z,1.60
2018-05-03T23:20:27.782Z,1.97
2018-05-03T23:22:55.327Z,1.67
2018-05-03T23:25:22.792Z,2.23
2018-05-03T23:27:50.291Z,2.20
2018-05-03T23:30:17.747Z,2.23
2018-05-03T23:32:45.289Z,2.07
2018-05-03T23:35:12.810Z,1.83
2018-05-03T23:37:40.279Z,1.73
2018-05-03T23:40:07.741Z,1.93
2018-05-03T23:42:35.228Z,1.90
2018-05-03T23:45:02.782Z,2.10
2018-05-03T23:47:30.338Z,1.73
2018-05-03T23:49:57.895Z,1.63
2018-05-03T23:52:25.355Z,2.13
2018-05-03T23:54:52.919Z,2.00
2018-05-03T23:57:21.191Z,2.17
2018-05-03T23:59:48.709Z,1.80
